createdAt,value
2022-10-23T06:45:06.271Z,12.90
2022-10-23T06:47:35.006Z,12.90
2022-10-23T06:50:03.051Z,12.90
2022-10-23T06:52:46.365Z,12.90
2022-10-23T06:55:15.378Z,12.90
2022-10-23T06:57:44.051Z,12.90
2022-10-23T07:00:14.522Z,12.90
2022-10-23T07:02:42.642Z,12.90
2022-10-23T07:05:13.522Z,12.90
2022-10-23T07:07:41.900Z,12.90
2022-10-23T07:10:09.995Z,12.90
2022-10-23T07:12:37.817Z,12.90
2022-10-23T07:15:06.696Z,12.90
2022-10-23T07:17:36.010Z,12.90
2022-10-23T07:20:06.564Z,12.90
2022-10-23T07:22:34.494Z,12.90
2022-10-23T07:25:02.413Z,12.90
2022-10-23T07:27:30.253Z,12.90
2022-10-23T07:29:58.051Z,12.90
2022-10-23T07:32:28.081Z,12.90
2022-10-23T07:34:57.307Z,12.90
2022-10-23T07:37:25.200Z,13.00
2022-10-23T07:39:53.359Z,12.90
2022-10-23T07:42:21.196Z,12.90
2022-10-23T07:44:49.003Z,12.90
2022-10-23T07:47:16.970Z,13.00
2022-10-23T07:49:44.763Z,12.90
2022-10-23T07:52:13.939Z,13.00
2022-10-23T07:54:41.817Z,13.00
2022-10-23T07:57:11.988Z,13.00
2022-10-23T07:59:39.925Z,13.00
2022-10-23T08:02:12.229Z,13.00
2022-10-23T08:04:40.188Z,13.00
2022-10-23T08:07:08.038Z,13.00
2022-10-23T08:09:38.028Z,13.00
2022-10-23T08:12:06.528Z,13.10
2022-10-23T08:14:34.347Z,13.10
2022-10-23T08:19:35.322Z,13.10
2022-10-23T08:22:03.828Z,13.20
2022-10-23T08:24:31.769Z,13.20
2022-10-23T08:27:00.946Z,13.20
2022-10-23T08:29:28.792Z,13.30
2022-10-23T08:31:57.401Z,13.30
2022-10-23T08:34:25.316Z,13.30
2022-10-23T08:36:53.148Z,13.40
2022-10-23T08:39:20.991Z,13.40
2022-10-23T08:41:51.031Z,13.50
2022-10-23T08:44:26.238Z,13.50
2022-10-23T08:47:01.299Z,13.60
2022-10-23T08:49:44.279Z,13.60
2022-10-23T08:52:21.027Z,13.70
2022-10-23T08:55:02.430Z,13.70
2022-10-23T08:57:38.760Z,13.80
2022-10-23T09:00:17.109Z,13.80
2022-10-23T09:02:46.994Z,13.90
2022-10-23T09:05:17.974Z,13.80
2022-10-23T09:08:01.207Z,14.00
2022-10-23T09:10:59.323Z,14.00
2022-10-23T09:13:58.867Z,14.10
2022-10-23T09:16:42.225Z,14.20
